createdAt,value
2022-10-23T00:01:38.106Z,97455.53
2022-10-23T00:04:09.695Z,97446.97
2022-10-23T00:06:41.163Z,97454.59
2022-10-23T00:09:10.878Z,97449.16
2022-10-23T00:11:38.083Z,97445.56
2022-10-23T00:14:07.505Z,97447.25
2022-10-23T00:16:35.559Z,97442.53
2022-10-23T00:19:03.204Z,97438.25
2022-10-23T00:21:30.522Z,97441.81
2022-10-23T00:24:00.321Z,97449.75
2022-10-23T00:26:27.816Z,97438.84
2022-10-23T00:28:56.105Z,97444.19
2022-10-23T00:31:25.041Z,97438.91
2022-10-23T00:33:53.109Z,97425.25
2022-10-23T00:36:21.484Z,97436.00
2022-10-23T00:38:50.382Z,97439.41
2022-10-23T00:41:21.387Z,97431.69
2022-10-23T00:44:03.283Z,97436.22
2022-10-23T00:46:31.574Z,97438.16
2022-10-23T00:49:00.142Z,97440.84
2022-10-23T00:51:32.499Z,97433.06
2022-10-23T00:54:23.051Z,97428.75
2022-10-23T00:56:50.385Z,97439.25
2022-10-23T00:59:17.923Z,97433.38
2022-10-23T01:01:45.898Z,97425.50
2022-10-23T01:04:13.062Z,97431.69
2022-10-23T01:06:45.427Z,97429.25
2022-10-23T01:09:19.337Z,97434.38
2022-10-23T01:11:53.414Z,97430.94
2022-10-23T01:14:27.678Z,97418.03
2022-10-23T01:17:04.756Z,97408.72
2022-10-23T01:19:45.150Z,97419.41
2022-10-23T01:22:29.024Z,97430.22
2022-10-23T01:25:00.984Z,97425.34
2022-10-23T01:27:35.437Z,97430.44
2022-10-23T01:30:06.117Z,97424.66
2022-10-23T01:32:40.460Z,97429.44
2022-10-23T01:35:14.412Z,97431.31
2022-10-23T01:37:44.499Z,97435.59
2022-10-23T01:40:19.476Z,97435.75
2022-10-23T01:42:53.247Z,97432.41
2022-10-23T01:45:26.850Z,97429.75
2022-10-23T01:47:56.017Z,97427.81
2022-10-23T01:50:25.766Z,97432.84
2022-10-23T01:52:52.948Z,97428.66
2022-10-23T01:55:21.535Z,97420.84
2022-10-23T01:57:51.186Z,97429.50
2022-10-23T02:00:20.345Z,97424.47
2022-10-23T02:02:50.718Z,97421.78
2022-10-23T02:05:21.483Z,97421.78
2022-10-23T02:07:49.593Z,97420.34
2022-10-23T02:10:18.094Z,97425.59
2022-10-23T02:12:57.489Z,97418.81
2022-10-23T02:15:30.749Z,97419.97
2022-10-23T02:18:07.147Z,97427.91
2022-10-23T02:20:38.328Z,97422.03
2022-10-23T02:23:15.565Z,97416.16
2022-10-23T02:25:50.627Z,97416.16
2022-10-23T02:28:25.882Z,97419.81
2022-10-23T02:30:55.397Z,97408.81
2022-10-23T02:33:23.790Z,97409.78
2022-10-23T02:35:50.872Z,97413.31
2022-10-23T02:38:31.508Z,97406.50
2022-10-23T02:41:08.871Z,97408.28
2022-10-23T02:43:46.652Z,97403.25
2022-10-23T02:46:22.667Z,97404.06
2022-10-23T02:49:00.303Z,97400.41
2022-10-23T02:51:34.257Z,97400.72
2022-10-23T02:54:07.799Z,97399.19
2022-10-23T02:56:44.065Z,97394.06
2022-10-23T02:59:21.660Z,97402.88
2022-10-23T03:01:52.853Z,97403.78
2022-10-23T03:04:23.212Z,97407.50
2022-10-23T03:06:52.322Z,97412.69
2022-10-23T03:09:19.812Z,97410.25
2022-10-23T03:11:46.881Z,97424.22
2022-10-23T03:14:15.459Z,97420.75
2022-10-23T03:16:42.719Z,97411.56
2022-10-23T03:19:09.858Z,97414.16
2022-10-23T03:21:37.347Z,97416.81
2022-10-23T03:24:04.821Z,97416.81
2022-10-23T03:26:31.856Z,97424.66
2022-10-23T03:28:58.995Z,97429.06
2022-10-23T03:31:27.585Z,97416.09
2022-10-23T03:33:55.062Z,97415.34
2022-10-23T03:36:22.053Z,97419.13
2022-10-23T03:38:49.323Z,97414.25
2022-10-23T03:41:16.338Z,97404.00
2022-10-23T03:43:43.696Z,97406.81
2022-10-23T03:46:11.053Z,97408.59
2022-10-23T03:48:39.975Z,97410.50
2022-10-23T03:51:07.422Z,97399.56
2022-10-23T03:53:34.600Z,97404.28
2022-10-23T03:56:02.217Z,97396.94
2022-10-23T03:58:29.319Z,97393.72
2022-10-23T04:00:56.301Z,97409.19
2022-10-23T04:03:23.840Z,97399.13
2022-10-23T04:05:52.570Z,97398.41
2022-10-23T04:08:20.221Z,97387.13
2022-10-23T04:10:47.620Z,97385.69
2022-10-23T04:13:14.780Z,97389.31
2022-10-23T04:15:47.639Z,97393.09
2022-10-23T04:18:14.780Z,97385.53
2022-10-23T04:20:41.879Z,97382.16
2022-10-23T04:23:10.621Z,97379.72
2022-10-23T04:25:37.660Z,97377.97
2022-10-23T04:28:05.015Z,97371.88
2022-10-23T04:30:32.253Z,97381.81
2022-10-23T04:32:59.217Z,97385.59
2022-10-23T04:35:26.267Z,97367.47
2022-10-23T04:37:53.563Z,97377.75
2022-10-23T04:40:22.422Z,97372.72
2022-10-23T04:42:49.459Z,97369.50
2022-10-23T04:45:16.784Z,97354.31
2022-10-23T04:47:44.081Z,97352.53
2022-10-23T04:50:11.102Z,97357.09
2022-10-23T04:52:38.237Z,97346.13
2022-10-23T04:55:08.765Z,97359.31
2022-10-23T04:57:38.111Z,97356.06
2022-10-23T05:00:08.168Z,97361.31
2022-10-23T05:02:36.312Z,97350.13
2022-10-23T05:05:04.510Z,97351.16
2022-10-23T05:07:32.028Z,97350.34
2022-10-23T05:09:59.540Z,97351.97
2022-10-23T05:12:27.727Z,97358.94
2022-10-23T05:14:56.960Z,97371.66
2022-10-23T05:17:30.460Z,97357.13
2022-10-23T05:20:02.429Z,97360.41
2022-10-23T05:22:36.362Z,97358.53
2022-10-23T05:25:05.835Z,97362.75
2022-10-23T05:27:33.943Z,97363.63
2022-10-23T05:30:03.065Z,97363.50
2022-10-23T05:32:32.509Z,97363.50
2022-10-23T05:35:03.245Z,97365.13
2022-10-23T05:37:32.670Z,97366.03
2022-10-23T05:40:00.507Z,97350.84
2022-10-23T05:42:28.029Z,97375.81
2022-10-23T05:44:55.860Z,97373.16
2022-10-23T05:47:24.988Z,97385.97
2022-10-23T05:49:52.367Z,97380.66
2022-10-23T05:52:19.684Z,97379.91
2022-10-23T05:54:47.509Z,97379.03
2022-10-23T05:57:15.221Z,97377.38
2022-10-23T05:59:42.558Z,97378.19
2022-10-23T06:02:10.267Z,97372.81
2022-10-23T06:04:39.804Z,97370.94
2022-10-23T06:07:06.758Z,97369.22
2022-10-23T06:09:34.589Z,97378.63
2022-10-23T06:12:02.413Z,97388.34
2022-10-23T06:14:30.075Z,97386.84
2022-10-23T06:16:57.472Z,97386.94
2022-10-23T06:19:24.649Z,97389.44
2022-10-23T06:21:53.782Z,97384.53
2022-10-23T06:24:21.314Z,97392.16
2022-10-23T06:26:48.559Z,97398.97
2022-10-23T06:29:15.692Z,97395.75
2022-10-23T06:31:42.881Z,97399.94
2022-10-23T06:34:12.347Z,97393.72
2022-10-23T06:36:40.160Z,97397.22
2022-10-23T06:39:10.255Z,97408.22
2022-10-23T06:41:38.106Z,97403.75
2022-10-23T06:44:06.286Z,97413.84
2022-10-23T06:46:36.365Z,97418.88
2022-10-23T06:49:04.483Z,97427.22
2022-10-23T06:51:31.987Z,97425.31
2022-10-23T06:53:59.505Z,97415.81
2022-10-23T06:56:28.711Z,97402.81
2022-10-23T06:58:56.508Z,97411.97
2022-10-23T07:01:24.069Z,97401.53
2022-10-23T07:03:51.596Z,97400.56
2022-10-23T07:06:18.983Z,97419.47
2022-10-23T07:08:46.235Z,97426.53
2022-10-23T07:11:14.085Z,97433.53
2022-10-23T07:13:42.689Z,97420.38
2022-10-23T07:16:12.965Z,97423.53
2022-10-23T07:18:42.725Z,97425.16
2022-10-23T07:21:10.240Z,97438.03
2022-10-23T07:23:38.089Z,97440.28
2022-10-23T07:26:08.195Z,97439.09
2022-10-23T07:28:36.625Z,97439.81
2022-10-23T07:31:06.717Z,97444.72
2022-10-23T07:33:33.991Z,97444.50
2022-10-23T07:36:03.666Z,97450.03
2022-10-23T07:38:31.505Z,97444.69
2022-10-23T07:40:59.691Z,97446.34
2022-10-23T07:43:27.264Z,97436.34
2022-10-23T07:45:54.798Z,97432.53
2022-10-23T07:48:23.796Z,97430.50
2022-10-23T07:50:52.044Z,97420.91
2022-10-23T07:53:22.137Z,97427.41
2022-10-23T07:55:54.050Z,97421.00
2022-10-23T07:58:21.486Z,97420.53
2022-10-23T08:00:55.277Z,97425.50
2022-10-23T08:03:25.220Z,97439.03
2022-10-23T08:05:53.942Z,97422.31
2022-10-23T08:08:21.922Z,97420.31
2022-10-23T08:10:50.762Z,97426.06
2022-10-23T08:13:18.561Z,97425.78
2022-10-23T08:15:47.210Z,97427.91
2022-10-23T08:18:15.084Z,97425.75
2022-10-23T08:20:46.121Z,97429.03
2022-10-23T08:23:16.370Z,97427.00
2022-10-23T08:25:43.766Z,97417.28
2022-10-23T08:28:11.441Z,97429.19
2022-10-23T08:30:38.832Z,97414.34
2022-10-23T08:33:07.379Z,97407.06
2022-10-23T08:35:37.173Z,97400.97
2022-10-23T08:38:07.051Z,97396.19
2022-10-23T08:40:36.046Z,97385.81
2022-10-23T08:43:07.235Z,97389.69
2022-10-23T08:45:40.676Z,97390.19
2022-10-23T08:48:22.885Z,97393.28
2022-10-23T08:50:54.653Z,97389.53
2022-10-23T08:53:33.294Z,97393.50
2022-10-23T08:56:03.926Z,97393.16
2022-10-23T08:58:45.954Z,97424.03
2022-10-23T09:01:31.533Z,97425.94
2022-10-23T09:03:59.542Z,97435.94
2022-10-23T09:06:35.353Z,97426.84
2022-10-23T09:09:16.034Z,97418.22
2022-10-23T09:11:50.542Z,97423.91
2022-10-23T09:14:34.085Z,97414.16
2022-10-23T09:19:46.638Z,97420.78
2022-10-23T09:22:14.567Z,97415.50
2022-10-23T09:24:44.347Z,97427.34
2022-10-23T09:27:16.687Z,97419.63
2022-10-23T09:29:49.462Z,97418.41
2022-10-23T09:32:16.552Z,97415.72
2022-10-23T09:34:52.302Z,97414.72
2022-10-23T09:37:22.497Z,97415.38
2022-10-23T09:40:03.706Z,97413.19
2022-10-23T09:42:31.212Z,97414.03
2022-10-23T09:44:58.752Z,97418.88
2022-10-23T09:47:26.231Z,97413.50
2022-10-23T09:49:55.375Z,97400.41
2022-10-23T09:52:29.136Z,97394.19
2022-10-23T09:55:00.857Z,97394.78
2022-10-23T09:57:32.311Z,97380.06
2022-10-23T10:00:03.538Z,97377.88
2022-10-23T10:02:33.006Z,97381.13
2022-10-23T10:05:11.548Z,97380.88
2022-10-23T10:07:38.778Z,97380.59
2022-10-23T10:10:16.079Z,97385.34
2022-10-23T10:12:50.386Z,97380.88
2022-10-23T10:15:24.681Z,97375.47
2022-10-23T10:18:02.404Z,97361.44
2022-10-23T10:20:45.285Z,97374.75
2022-10-23T10:23:23.194Z,97371.03
2022-10-23T10:26:03.386Z,97359.56
2022-10-23T10:29:03.213Z,97356.69
2022-10-23T10:31:42.301Z,97341.72
2022-10-23T10:34:17.773Z,97351.94
2022-10-23T10:36:51.296Z,97340.19
2022-10-23T10:39:42.017Z,97364.38
2022-10-23T10:42:24.554Z,97349.28
2022-10-23T10:45:08.056Z,97330.94
2022-10-23T10:47:45.439Z,97330.75
2022-10-23T10:50:21.289Z,97331.94
2022-10-23T10:52:53.383Z,97318.69
2022-10-23T10:55:27.197Z,97321.53
2022-10-23T10:58:01.900Z,97320.22
2022-10-23T11:00:31.282Z,97324.19
2022-10-23T11:03:04.187Z,97325.06
2022-10-23T11:05:33.099Z,97329.69
2022-10-23T11:08:05.653Z,97305.63
2022-10-23T11:10:34.732Z,97308.03
2022-10-23T11:13:04.499Z,97303.53
2022-10-23T11:15:41.356Z,97298.63
2022-10-23T11:18:17.654Z,97292.69
2022-10-23T11:21:00.017Z,97285.19
2022-10-23T11:26:51.048Z,97263.03
2022-10-23T11:29:46.730Z,97266.56
2022-10-23T11:32:41.477Z,97259.97
2022-10-23T11:35:25.911Z,97254.09
2022-10-23T11:38:02.074Z,97254.28
2022-10-23T11:40:29.952Z,97233.75
2022-10-23T11:42:58.182Z,97233.09
2022-10-23T11:45:33.284Z,97223.28
2022-10-23T11:48:02.698Z,97232.88
2022-10-23T11:50:49.487Z,97242.91
2022-10-23T11:53:28.491Z,97235.34
2022-10-23T11:56:02.190Z,97235.97
2022-10-23T11:58:44.771Z,97234.59
2022-10-23T12:01:36.945Z,97225.56
2022-10-23T12:04:16.855Z,97238.75
2022-10-23T12:06:47.321Z,97235.09
2022-10-23T12:09:32.626Z,97237.16
2022-10-23T12:12:14.951Z,97234.78
2022-10-23T12:14:44.640Z,97229.59
2022-10-23T12:17:35.976Z,97206.44
2022-10-23T12:20:19.481Z,97202.50
2022-10-23T12:22:59.763Z,97175.88
2022-10-23T12:25:38.062Z,97184.81
2022-10-23T12:28:14.461Z,97179.47
2022-10-23T12:30:48.308Z,97177.19
2022-10-23T12:33:28.739Z,97180.09
2022-10-23T12:36:28.696Z,97167.56
2022-10-23T12:38:56.125Z,97152.22
2022-10-23T12:41:26.843Z,97164.00
2022-10-23T12:43:57.259Z,97153.28
2022-10-23T12:46:33.442Z,97150.91
2022-10-23T12:49:13.467Z,97152.56
2022-10-23T12:51:42.396Z,97144.59
2022-10-23T12:54:17.702Z,97152.91
2022-10-23T12:56:46.043Z,97149.09
2022-10-23T12:59:16.743Z,97139.78
2022-10-23T13:01:46.988Z,97135.28
2022-10-23T13:04:26.464Z,97134.94
2022-10-23T13:06:56.138Z,97140.63
2022-10-23T13:09:28.578Z,97131.84
2022-10-23T13:11:58.230Z,97130.59
2022-10-23T13:14:39.366Z,97138.00
2022-10-23T13:17:12.976Z,97135.16
2022-10-23T13:19:42.268Z,97126.22
2022-10-23T13:22:19.292Z,97118.94
2022-10-23T13:24:47.330Z,97116.06
2022-10-23T13:27:26.302Z,97130.34
2022-10-23T13:29:54.301Z,97116.00
2022-10-23T13:32:24.761Z,97110.06
2022-10-23T13:35:04.019Z,97108.16
2022-10-23T13:37:32.397Z,97094.66
2022-10-23T13:40:00.850Z,97094.78
2022-10-23T13:42:28.850Z,97100.75
2022-10-23T13:44:57.281Z,97103.13
2022-10-23T13:47:25.099Z,97106.19
2022-10-23T13:49:54.072Z,97094.22
2022-10-23T13:52:23.256Z,97096.22
2022-10-23T13:54:50.447Z,97099.88
2022-10-23T13:57:17.662Z,97097.44
2022-10-23T13:59:44.775Z,97092.91
2022-10-23T14:02:20.865Z,97095.97
2022-10-23T14:04:48.882Z,97085.09
2022-10-23T14:07:18.906Z,97093.09
2022-10-23T14:09:47.472Z,97092.28
2022-10-23T14:12:16.005Z,97097.66
2022-10-23T14:14:43.699Z,97083.28
2022-10-23T14:17:11.419Z,97085.91
2022-10-23T14:19:39.280Z,97093.53
2022-10-23T14:22:07.221Z,97088.16
2022-10-23T14:24:36.326Z,97098.22
2022-10-23T14:27:04.450Z,97089.53
2022-10-23T14:29:32.047Z,97086.19
2022-10-23T14:32:00.216Z,97082.47
2022-10-23T14:34:27.721Z,97080.66
2022-10-23T14:37:08.195Z,97085.53
2022-10-23T14:39:38.140Z,97073.38
2022-10-23T14:42:06.247Z,97080.41
2022-10-23T14:44:34.166Z,97073.25
2022-10-23T14:47:02.237Z,97075.88
2022-10-23T14:49:29.740Z,97075.03
2022-10-23T14:51:57.909Z,97071.72
2022-10-23T14:54:25.757Z,97074.59
2022-10-23T14:56:56.046Z,97075.69
2022-10-23T14:59:24.736Z,97068.06
2022-10-23T15:04:25.140Z,97067.63
2022-10-23T15:06:53.751Z,97071.19
2022-10-23T15:09:22.875Z,97069.09
2022-10-23T15:11:51.327Z,97056.97
2022-10-23T15:14:21.283Z,97058.97
2022-10-23T15:16:49.463Z,97059.25
2022-10-23T15:19:18.846Z,97054.75
2022-10-23T15:21:48.385Z,97051.69
2022-10-23T15:24:16.842Z,97054.94
2022-10-23T15:26:47.045Z,97062.50
2022-10-23T15:29:16.190Z,97060.38
2022-10-23T15:31:50.609Z,97067.56
2022-10-23T15:34:22.124Z,97062.94
2022-10-23T15:36:50.187Z,97069.63
2022-10-23T15:39:20.192Z,97065.13
2022-10-23T15:41:50.448Z,97072.75
2022-10-23T15:44:21.763Z,97060.25
2022-10-23T15:46:53.589Z,97059.66
2022-10-23T15:49:21.597Z,97060.16
2022-10-23T15:51:50.767Z,97061.84
2022-10-23T15:54:19.890Z,97059.97
2022-10-23T15:56:51.678Z,97064.13
2022-10-23T15:59:22.205Z,97062.97
2022-10-23T16:01:53.983Z,97062.94
2022-10-23T16:04:22.322Z,97059.75
2022-10-23T16:06:51.100Z,97058.44
2022-10-23T16:09:18.897Z,97076.53
2022-10-23T16:11:46.306Z,97079.84
2022-10-23T16:14:16.623Z,97071.66
2022-10-23T16:16:45.175Z,97065.94
2022-10-23T16:19:15.343Z,97067.13
2022-10-23T16:21:44.167Z,97074.47
2022-10-23T16:24:11.867Z,97065.44
2022-10-23T16:26:39.936Z,97062.31
2022-10-23T16:29:10.290Z,97069.06
2022-10-23T16:31:38.741Z,97066.31
2022-10-23T16:34:06.617Z,97065.06
2022-10-23T16:36:38.101Z,97065.31
2022-10-23T16:39:07.084Z,97086.66
2022-10-23T16:41:38.893Z,97077.50
2022-10-23T16:44:07.631Z,97077.13
2022-10-23T16:46:35.181Z,97082.69
2022-10-23T16:49:05.001Z,97079.56
2022-10-23T16:51:36.186Z,97089.22
2022-10-23T16:54:06.481Z,97087.63
2022-10-23T16:56:34.553Z,97095.91
2022-10-23T16:59:03.410Z,97093.75
2022-10-23T17:01:34.231Z,97106.22
2022-10-23T17:04:04.318Z,97091.19
2022-10-23T17:06:36.992Z,97096.00
2022-10-23T17:09:07.561Z,97100.72
2022-10-23T17:11:40.520Z,97112.31
2022-10-23T17:14:25.321Z,97111.00
2022-10-23T17:16:54.384Z,97113.06
2022-10-23T17:19:43.731Z,97109.75
2022-10-23T17:22:16.967Z,97111.84
2022-10-23T17:24:48.770Z,97105.16
2022-10-23T17:27:23.462Z,97098.16
2022-10-23T17:30:08.146Z,97092.22
2022-10-23T17:32:42.740Z,97095.38
2022-10-23T17:35:16.413Z,97094.13
2022-10-23T17:37:49.148Z,97096.28
2022-10-23T17:40:25.066Z,97089.63
2022-10-23T17:42:55.646Z,97094.31
2022-10-23T17:45:26.452Z,97081.38
2022-10-23T17:47:56.511Z,97079.84
2022-10-23T17:50:27.169Z,97091.31
2022-10-23T17:53:14.008Z,97107.16
2022-10-23T17:55:58.552Z,97093.59
2022-10-23T17:58:34.096Z,97103.28
2022-10-23T18:01:12.677Z,97106.00
2022-10-23T18:03:46.277Z,97101.75
2022-10-23T18:06:27.382Z,97109.56
2022-10-23T18:09:04.216Z,97102.06
2022-10-23T18:11:35.216Z,97106.72
2022-10-23T18:14:05.447Z,97094.00
2022-10-23T18:16:34.469Z,97102.22
2022-10-23T18:19:03.111Z,97101.19
2022-10-23T18:21:35.376Z,97103.50
2022-10-23T18:24:09.972Z,97107.97
2022-10-23T18:26:39.711Z,97102.00
2022-10-23T18:29:09.037Z,97107.53
2022-10-23T18:31:39.219Z,97113.91
2022-10-23T18:34:17.589Z,97103.69
2022-10-23T18:36:47.268Z,97095.97
2022-10-23T18:39:19.975Z,97093.47
2022-10-23T18:41:47.699Z,97089.28
2022-10-23T18:44:18.547Z,97092.91
2022-10-23T18:46:49.202Z,97070.41
2022-10-23T18:49:19.288Z,97076.44
2022-10-23T18:51:53.614Z,97071.53
2022-10-23T18:54:24.038Z,97080.38
2022-10-23T18:56:52.568Z,97077.88
2022-10-23T18:59:23.664Z,97073.81
2022-10-23T19:01:54.393Z,97072.44
2022-10-23T19:04:27.209Z,97072.44
2022-10-23T19:06:56.329Z,97074.44
2022-10-23T19:09:27.131Z,97068.75
2022-10-23T19:11:56.764Z,97052.31
2022-10-23T19:14:26.106Z,97072.22
2022-10-23T19:17:00.028Z,97076.38
2022-10-23T19:19:32.782Z,97073.88
2022-10-23T19:22:05.107Z,97066.16
2022-10-23T19:24:41.033Z,97062.00
2022-10-23T19:27:11.713Z,97056.88
2022-10-23T19:29:45.906Z,97045.53
2022-10-23T19:32:16.199Z,97055.41
2022-10-23T19:34:45.529Z,97057.28
2022-10-23T19:37:15.089Z,97063.41
2022-10-23T19:39:46.136Z,97061.00
2022-10-23T19:42:14.228Z,97061.84
2022-10-23T19:44:43.767Z,97063.81
2022-10-23T19:47:15.464Z,97065.88
2022-10-23T19:49:43.630Z,97060.97
2022-10-23T19:52:12.514Z,97058.66
2022-10-23T19:54:41.909Z,97056.06
2022-10-23T19:57:13.102Z,97053.84
2022-10-23T19:59:41.790Z,97063.53
2022-10-23T20:02:20.179Z,97048.91
2022-10-23T20:04:48.617Z,97061.81
2022-10-23T20:07:22.219Z,97062.69
2022-10-23T20:09:52.673Z,97054.31
2022-10-23T20:12:27.085Z,97059.50
2022-10-23T20:14:55.871Z,97055.31
2022-10-23T20:17:24.368Z,97059.41
2022-10-23T20:19:54.492Z,97050.88
2022-10-23T20:22:25.995Z,97052.53
2022-10-23T20:24:54.247Z,97049.84
2022-10-23T20:27:26.316Z,97048.91
2022-10-23T20:29:54.868Z,97052.28
2022-10-23T20:32:23.599Z,97053.84
2022-10-23T20:34:55.060Z,97046.22
2022-10-23T20:37:25.050Z,97049.00
2022-10-23T20:39:55.182Z,97057.00
2022-10-23T20:42:26.239Z,97062.50
2022-10-23T20:44:54.596Z,97057.50
2022-10-23T20:47:22.677Z,97060.19
2022-10-23T20:49:50.573Z,97064.56
2022-10-23T20:52:18.435Z,97064.75
2022-10-23T20:54:45.741Z,97066.41
2022-10-23T20:57:15.787Z,97062.97
2022-10-23T20:59:48.211Z,97063.91
2022-10-23T21:02:16.730Z,97060.56
2022-10-23T21:04:44.821Z,97061.50
2022-10-23T21:07:12.203Z,97061.50
2022-10-23T21:09:39.772Z,97065.78
2022-10-23T21:12:07.879Z,97061.41
2022-10-23T21:14:35.665Z,97056.09
2022-10-23T21:17:04.596Z,97056.09
2022-10-23T21:19:32.089Z,97061.41
2022-10-23T21:21:59.071Z,97056.47
2022-10-23T21:24:26.113Z,97054.47
2022-10-23T21:26:53.412Z,97051.84
2022-10-23T21:29:21.031Z,97065.91
2022-10-23T21:31:52.519Z,97061.44
2022-10-23T21:34:21.235Z,97069.16
2022-10-23T21:37:11.230Z,97062.06
2022-10-23T21:39:36.171Z,97052.44
2022-10-23T21:42:03.209Z,97055.75
2022-10-23T21:44:30.237Z,97054.94
2022-10-23T21:46:58.093Z,97062.34
2022-10-23T21:49:27.859Z,97059.09
2022-10-23T21:51:55.704Z,97065.16
2022-10-23T21:54:24.191Z,97051.28
2022-10-23T21:56:52.878Z,97049.25
2022-10-23T21:59:21.689Z,97050.69
2022-10-23T22:01:49.710Z,97046.06
2022-10-23T22:04:18.615Z,97044.91
2022-10-23T22:06:49.082Z,97039.72
2022-10-23T22:09:20.314Z,97033.59
2022-10-23T22:11:49.013Z,97035.25
2022-10-23T22:14:16.730Z,97040.19
2022-10-23T22:16:43.967Z,97041.75
2022-10-23T22:19:13.437Z,97033.03
2022-10-23T22:21:41.301Z,97037.31
2022-10-23T22:24:10.163Z,97042.63
2022-10-23T22:26:39.366Z,97040.00
2022-10-23T22:29:10.478Z,97037.31
2022-10-23T22:31:39.515Z,97043.88
2022-10-23T22:34:20.153Z,97046.19
2022-10-23T22:36:56.892Z,97029.84
2022-10-23T22:39:25.847Z,97044.94
2022-10-23T22:41:54.275Z,97049.28
2022-10-23T22:44:21.602Z,97047.72
2022-10-23T22:46:48.715Z,97045.84
2022-10-23T22:49:15.995Z,97042.53
2022-10-23T22:51:43.750Z,97037.41
2022-10-23T22:54:11.680Z,97040.00
2022-10-23T22:56:40.238Z,97051.59
2022-10-23T22:59:07.523Z,97054.41
2022-10-23T23:01:37.920Z,97053.00
2022-10-23T23:04:13.906Z,97058.50
2022-10-23T23:06:52.545Z,97050.34
2022-10-23T23:09:19.834Z,97047.50
2022-10-23T23:11:52.751Z,97053.91
2022-10-23T23:14:23.581Z,97040.38
2022-10-23T23:16:53.017Z,97044.63
2022-10-23T23:19:20.883Z,97028.19
2022-10-23T23:21:48.300Z,97030.34
2022-10-23T23:24:15.594Z,97028.66
2022-10-23T23:26:43.074Z,97023.66
2022-10-23T23:29:13.367Z,97037.03
2022-10-23T23:31:41.131Z,97023.03
2022-10-23T23:34:08.304Z,97021.00
2022-10-23T23:36:35.677Z,97023.97
2022-10-23T23:41:31.227Z,97019.97
2022-10-23T23:43:59.400Z,97007.06
2022-10-23T23:46:28.502Z,97018.94
2022-10-23T23:48:55.551Z,97009.19
2022-10-23T23:51:24.930Z,97009.19
2022-10-23T23:53:52.456Z,97014.31
2022-10-23T23:56:21.204Z,97021.28
2022-10-23T23:58:48.398Z,97010.50
